createdAt,value
2018-03-26T00:01:17.150Z,74.87
2018-03-26T00:03:50.808Z,73.33
2018-03-26T00:06:24.530Z,64.07
2018-03-26T00:08:59.070Z,56.80
2018-03-26T00:11:32.824Z,70.67
2018-03-26T00:14:06.725Z,139.27
2018-03-26T00:16:40.466Z,129.13
2018-03-26T00:19:14.326Z,147.13
2018-03-26T00:21:48.060Z,85.23
2018-03-26T00:24:22.571Z,81.80
2018-03-26T00:26:57.001Z,92.63
2018-03-26T00:29:30.875Z,71.40
2018-03-26T00:32:04.634Z,38.53
2018-03-26T00:34:39.154Z,42.57
2018-03-26T00:37:12.905Z,43.07
2018-03-26T00:39:46.649Z,23.73
2018-03-26T00:42:20.432Z,52.83
2018-03-26T00:44:54.955Z,42.30
2018-03-26T00:47:28.701Z,43.13
2018-03-26T00:50:02.486Z,51.27
2018-03-26T00:52:36.333Z,73.30
2018-03-26T00:55:10.086Z,52.57
2018-03-26T00:57:43.855Z,52.93
2018-03-26T01:00:18.398Z,58.67
2018-03-26T01:02:52.236Z,60.93
2018-03-26T01:05:26.128Z,61.83
2018-03-26T01:08:00.447Z,64.47
2018-03-26T01:10:34.278Z,79.27
2018-03-26T01:13:08.103Z,127.47
2018-03-26T01:15:41.792Z,77.53
2018-03-26T01:18:16.438Z,105.57
2018-03-26T01:20:50.028Z,183.43
2018-03-26T01:23:23.844Z,99.50
2018-03-26T01:25:57.606Z,156.43
2018-03-26T01:28:31.445Z,174.93
2018-03-26T01:31:05.182Z,155.50
2018-03-26T01:33:39.067Z,123.50
2018-03-26T01:36:13.598Z,99.73
2018-03-26T01:38:47.397Z,173.10
2018-03-26T01:41:21.249Z,90.57
2018-03-26T01:43:55.858Z,87.87
2018-03-26T01:46:29.454Z,115.47
2018-03-26T01:49:03.135Z,120.50
2018-03-26T01:51:36.974Z,93.27
2018-03-26T01:54:10.626Z,173.57
2018-03-26T01:56:44.330Z,85.00
2018-03-26T01:59:18.197Z,69.57
2018-03-26T02:01:51.938Z,72.73
2018-03-26T02:04:25.698Z,58.97
2018-03-26T02:07:00.204Z,73.07
2018-03-26T02:09:33.956Z,77.40
2018-03-26T02:12:07.721Z,59.70
2018-03-26T02:14:42.141Z,38.67
2018-03-26T02:17:15.888Z,61.33
2018-03-26T02:19:49.695Z,57.27
2018-03-26T02:22:23.517Z,46.70
2018-03-26T02:24:58.028Z,76.53
2018-03-26T02:27:31.682Z,137.53
2018-03-26T02:30:05.402Z,58.40
2018-03-26T02:32:39.676Z,99.03
2018-03-26T02:35:13.949Z,85.70
2018-03-26T02:37:47.854Z,136.60
2018-03-26T02:40:22.416Z,91.50
2018-03-26T02:42:57.053Z,90.67
2018-03-26T02:45:30.887Z,95.00
2018-03-26T02:48:04.613Z,54.57
2018-03-26T02:50:38.369Z,66.80
2018-03-26T02:53:12.048Z,97.70
2018-03-26T02:55:45.882Z,134.57
2018-03-26T02:58:19.675Z,142.90
2018-03-26T03:00:53.319Z,88.33
2018-03-26T03:03:27.133Z,69.83
2018-03-26T03:06:00.903Z,184.47
2018-03-26T03:08:34.683Z,100.50
2018-03-26T03:11:08.453Z,58.77
2018-03-26T03:13:42.284Z,124.13
2018-03-26T03:16:16.002Z,95.00
2018-03-26T03:18:49.782Z,166.00
2018-03-26T03:21:24.113Z,196.87
2018-03-26T03:23:57.710Z,81.77
2018-03-26T03:26:31.476Z,142.57
2018-03-26T03:29:05.281Z,182.67
2018-03-26T03:31:38.963Z,133.00
2018-03-26T03:34:14.161Z,91.27
2018-03-26T03:36:48.579Z,85.20
2018-03-26T03:39:22.321Z,166.37
2018-03-26T03:41:56.055Z,150.90
2018-03-26T03:44:29.937Z,191.63
2018-03-26T03:47:03.724Z,107.40
2018-03-26T03:49:37.647Z,146.30
2018-03-26T03:52:11.433Z,50.93
2018-03-26T03:54:45.264Z,123.00
2018-03-26T03:57:19.824Z,77.13
2018-03-26T03:59:53.656Z,113.80
2018-03-26T04:02:27.440Z,130.73
2018-03-26T04:05:01.298Z,104.33
2018-03-26T04:07:35.071Z,179.20
2018-03-26T04:10:08.967Z,148.07
2018-03-26T04:12:43.438Z,193.93
2018-03-26T04:15:17.966Z,232.77
2018-03-26T04:17:51.801Z,171.23
2018-03-26T04:20:26.329Z,200.33
2018-03-26T04:23:00.166Z,135.70
2018-03-26T04:25:34.644Z,255.57
2018-03-26T04:28:09.123Z,238.83
2018-03-26T04:30:43.581Z,329.07
2018-03-26T04:33:17.387Z,284.93
2018-03-26T04:35:51.546Z,214.33
2018-03-26T04:38:26.158Z,324.33
2018-03-26T04:40:59.792Z,205.73
2018-03-26T04:43:33.672Z,286.03
2018-03-26T04:46:07.426Z,201.00
2018-03-26T04:48:41.312Z,155.47
2018-03-26T04:51:14.933Z,182.87
2018-03-26T04:53:48.754Z,285.00
2018-03-26T04:56:22.365Z,134.83
2018-03-26T04:58:56.253Z,184.27
2018-03-26T05:01:30.444Z,154.70
2018-03-26T05:04:04.073Z,224.10
2018-03-26T05:06:37.892Z,145.83
2018-03-26T05:09:11.727Z,166.63
2018-03-26T05:11:45.518Z,326.27
2018-03-26T05:14:19.275Z,84.43
2018-03-26T05:16:53.041Z,78.07
2018-03-26T05:19:26.803Z,269.30
2018-03-26T05:22:00.561Z,116.70
2018-03-26T05:24:35.086Z,258.60
2018-03-26T05:27:08.957Z,162.73
2018-03-26T05:29:42.578Z,177.93
2018-03-26T05:32:16.568Z,103.07
2018-03-26T05:34:50.166Z,65.23
2018-03-26T05:37:24.026Z,52.07
2018-03-26T05:39:57.723Z,44.80
2018-03-26T05:42:31.375Z,55.10
2018-03-26T05:45:05.166Z,47.03
2018-03-26T05:47:39.091Z,52.23
2018-03-26T05:50:12.794Z,85.67
2018-03-26T05:52:46.727Z,64.87
2018-03-26T05:55:22.706Z,74.87
2018-03-26T05:57:56.436Z,67.10
2018-03-26T06:00:30.621Z,53.10
2018-03-26T06:03:04.334Z,46.93
2018-03-26T06:05:38.278Z,38.53
2018-03-26T06:08:12.005Z,36.83
2018-03-26T06:10:46.611Z,29.03
2018-03-26T06:13:21.052Z,31.60
2018-03-26T06:15:57.412Z,39.97
2018-03-26T06:21:26.880Z,28.47
2018-03-26T06:24:01.588Z,26.67
2018-03-26T06:26:36.055Z,23.07
2018-03-26T06:32:24.308Z,32.07
2018-03-26T06:34:58.377Z,37.57
2018-03-26T06:37:47.065Z,31.27
2018-03-26T06:40:20.860Z,29.60
2018-03-26T06:42:55.378Z,36.13
2018-03-26T06:45:29.990Z,41.37
2018-03-26T06:48:08.326Z,43.90
2018-03-26T06:50:43.625Z,41.23
2018-03-26T06:53:17.249Z,38.43
2018-03-26T06:55:50.973Z,29.33
2018-03-26T06:58:29.533Z,21.40
2018-03-26T07:07:44.521Z,18.40
2018-03-26T07:52:33.047Z,18.17
2018-03-26T07:55:12.322Z,16.40
2018-03-26T07:57:47.299Z,17.40
2018-03-26T08:00:20.921Z,15.17
2018-03-26T08:02:54.862Z,18.90
2018-03-26T08:05:33.306Z,18.17
2018-03-26T09:48:44.420Z,14.93
2018-03-26T09:51:20.101Z,14.23
2018-03-26T09:53:54.259Z,13.73
2018-03-26T09:56:28.736Z,11.10
2018-03-26T09:59:04.014Z,12.73
2018-03-26T10:04:29.335Z,12.83
2018-03-26T10:07:03.270Z,12.90
2018-03-26T10:09:37.531Z,12.90
2018-03-26T10:12:18.379Z,13.03
2018-03-26T10:14:52.907Z,13.60
2018-03-26T10:17:27.361Z,8.67
2018-03-26T10:20:04.985Z,10.93
2018-03-26T10:22:38.781Z,11.57
2018-03-26T10:25:13.259Z,12.07
2018-03-26T10:27:47.057Z,11.40
2018-03-26T10:30:20.999Z,10.23
2018-03-26T10:33:04.910Z,10.03
2018-03-26T10:38:47.441Z,10.43
2018-03-26T10:41:22.095Z,7.23
2018-03-26T10:43:56.152Z,6.77
2018-03-26T10:46:30.007Z,5.60
2018-03-26T10:49:04.892Z,6.67
2018-03-26T10:51:40.328Z,5.57
2018-03-26T10:54:13.970Z,4.73
2018-03-26T10:56:47.651Z,7.00
2018-03-26T10:59:22.148Z,6.10
2018-03-26T11:01:59.638Z,5.00
2018-03-26T11:04:33.421Z,5.93
2018-03-26T11:07:07.156Z,6.97
2018-03-26T11:09:41.129Z,6.50
2018-03-26T11:12:15.463Z,7.13
2018-03-26T11:14:49.172Z,6.73
2018-03-26T11:17:22.809Z,7.03
2018-03-26T11:19:56.578Z,8.03
2018-03-26T11:22:31.118Z,7.03
2018-03-26T11:25:05.696Z,7.67
2018-03-26T11:27:39.318Z,6.27
2018-03-26T11:30:13.187Z,9.73
2018-03-26T11:32:51.665Z,9.40
2018-03-26T11:35:26.239Z,9.73
2018-03-26T11:38:01.807Z,9.80
2018-03-26T11:40:36.428Z,8.63
2018-03-26T11:43:10.146Z,9.10
2018-03-26T11:45:47.803Z,9.93
2018-03-26T11:48:31.136Z,16.70
2018-03-26T11:51:04.950Z,12.77
2018-03-26T11:53:44.206Z,15.13
2018-03-26T11:56:17.833Z,14.37
2018-03-26T11:59:11.567Z,19.93
2018-03-26T12:30:33.044Z,23.90
2018-03-26T12:33:08.728Z,22.70
2018-03-26T12:35:58.338Z,25.47
2018-03-26T12:38:34.755Z,21.23
2018-03-26T12:41:10.786Z,23.50
2018-03-26T12:43:46.689Z,23.97
2018-03-26T15:24:39.565Z,13.23
2018-03-26T15:27:13.509Z,14.30
2018-03-26T15:29:47.478Z,10.37
2018-03-26T15:32:21.556Z,11.43
2018-03-26T15:34:55.478Z,9.60
2018-03-26T15:37:30.515Z,9.53
2018-03-26T15:40:05.530Z,14.80
2018-03-26T15:42:40.094Z,13.50
2018-03-26T15:45:14.617Z,10.90
2018-03-26T15:47:48.491Z,12.37
2018-03-26T15:50:23.051Z,11.57
2018-03-26T15:52:56.911Z,15.60
2018-03-26T15:55:34.001Z,13.57
2018-03-26T15:58:13.857Z,12.07
2018-03-26T16:00:57.084Z,10.27
2018-03-26T16:03:31.312Z,10.93
2018-03-26T16:06:05.192Z,8.27
2018-03-26T16:09:04.318Z,11.13
2018-03-26T16:11:39.250Z,5.80
2018-03-26T16:14:18.477Z,11.57
2018-03-26T16:16:52.325Z,11.07
2018-03-26T16:19:33.044Z,11.47
2018-03-26T16:22:06.957Z,8.73
2018-03-26T16:24:58.870Z,12.55
2018-03-26T16:28:48.167Z,12.17
2018-03-26T16:31:21.996Z,10.93
2018-03-26T16:33:56.170Z,11.10
2018-03-26T16:36:30.702Z,13.67
2018-03-26T16:39:05.228Z,9.50
2018-03-26T17:23:43.467Z,15.93
2018-03-26T17:26:18.825Z,13.93
2018-03-26T17:28:54.164Z,14.20
2018-03-26T17:31:32.679Z,12.80
2018-03-26T17:40:31.201Z,8.97
2018-03-26T17:43:10.021Z,10.90
2018-03-26T17:45:47.367Z,9.90
2018-03-26T17:48:36.140Z,17.43
2018-03-26T17:51:38.169Z,12.53
2018-03-26T17:57:49.770Z,17.67
2018-03-26T18:00:35.320Z,17.50
2018-03-26T18:03:13.739Z,14.90
2018-03-26T18:05:54.300Z,27.50
2018-03-26T18:08:28.450Z,27.13
2018-03-26T18:11:02.023Z,20.73
2018-03-26T18:13:36.368Z,31.40
2018-03-26T18:16:10.861Z,21.43
2018-03-26T18:18:44.545Z,22.87
2018-03-26T18:21:18.326Z,20.43
2018-03-26T18:23:52.097Z,20.43
2018-03-26T18:26:26.255Z,19.67
2018-03-26T18:29:00.570Z,23.53
2018-03-26T18:31:34.348Z,18.77
2018-03-26T18:34:08.798Z,21.40
2018-03-26T18:36:42.558Z,21.43
2018-03-26T18:39:17.985Z,16.83
2018-03-26T18:41:52.200Z,23.67
2018-03-26T18:44:26.244Z,17.53
2018-03-26T18:47:00.892Z,21.37
2018-03-26T18:49:35.464Z,22.00
2018-03-26T18:52:09.681Z,21.03
2018-03-26T18:54:43.746Z,25.37
2018-03-26T18:57:17.651Z,34.13
2018-03-26T18:59:51.923Z,25.83
2018-03-26T19:02:26.078Z,21.60
2018-03-26T19:07:57.504Z,20.83
2018-03-26T19:10:31.659Z,26.47
2018-03-26T19:13:30.523Z,24.83
2018-03-26T19:16:05.855Z,20.03
2018-03-26T19:18:40.072Z,25.87
2018-03-26T19:21:14.597Z,21.67
2018-03-26T19:23:48.917Z,21.53
2018-03-26T19:26:22.917Z,27.40
2018-03-26T19:28:57.000Z,19.27
2018-03-26T19:31:31.139Z,25.10
2018-03-26T19:34:06.136Z,25.63
2018-03-26T19:36:40.543Z,26.90
2018-03-26T19:39:15.221Z,32.10
2018-03-26T19:41:49.549Z,30.07
2018-03-26T19:44:24.464Z,27.60
2018-03-26T19:46:59.721Z,19.70
2018-03-26T19:49:33.939Z,28.20
2018-03-26T19:52:44.452Z,27.27
2018-03-26T19:55:22.135Z,21.47
2018-03-26T19:57:57.538Z,22.77
2018-03-26T20:00:39.053Z,27.63
2018-03-26T20:03:17.360Z,27.43
2018-03-26T20:05:52.277Z,24.73
2018-03-26T20:08:28.416Z,18.90
2018-03-26T20:11:04.072Z,25.17
2018-03-26T20:13:38.921Z,22.13
2018-03-26T20:16:14.253Z,26.27
2018-03-26T20:18:48.741Z,27.83
2018-03-26T20:21:23.667Z,20.63
2018-03-26T20:23:57.560Z,24.10
2018-03-26T20:26:32.037Z,21.27
2018-03-26T20:29:07.275Z,29.30
2018-03-26T20:31:44.295Z,28.03
2018-03-26T20:34:32.393Z,24.67
2018-03-26T20:37:07.097Z,31.83
2018-03-26T20:39:45.378Z,28.63
2018-03-26T20:42:20.483Z,24.23
2018-03-26T20:44:54.801Z,27.20
2018-03-26T20:47:28.986Z,19.30
2018-03-26T20:50:04.465Z,29.20
2018-03-26T20:52:39.210Z,30.03
2018-03-26T20:55:18.389Z,20.03
2018-03-26T20:57:56.540Z,22.90
2018-03-26T21:00:36.932Z,25.67
2018-03-26T21:03:11.221Z,18.43
2018-03-26T21:05:46.337Z,26.87
2018-03-26T21:08:20.055Z,17.70
2018-03-26T21:11:00.977Z,20.90
2018-03-26T21:13:35.132Z,20.17
2018-03-26T21:16:12.086Z,22.03
2018-03-26T21:18:47.043Z,22.10
2018-03-26T21:21:21.423Z,26.80
2018-03-26T21:23:55.543Z,27.33
2018-03-26T21:26:29.500Z,25.97
2018-03-26T21:29:04.328Z,25.63
2018-03-26T21:31:40.685Z,24.47
2018-03-26T21:34:14.709Z,24.23
2018-03-26T21:36:49.023Z,24.37
2018-03-26T21:39:25.047Z,29.03
2018-03-26T21:42:05.671Z,31.87
2018-03-26T21:44:41.798Z,27.10
2018-03-26T21:47:19.428Z,25.07
2018-03-26T21:50:05.121Z,23.00
2018-03-26T21:52:39.925Z,32.87
2018-03-26T21:55:14.474Z,25.50
2018-03-26T21:57:48.554Z,22.60
2018-03-26T22:00:23.629Z,25.27
2018-03-26T22:02:58.900Z,23.63
2018-03-26T22:05:33.194Z,34.83
2018-03-26T22:08:07.569Z,24.27
2018-03-26T22:10:41.289Z,37.37
2018-03-26T22:13:25.849Z,30.60
2018-03-26T22:16:00.555Z,31.67
2018-03-26T22:18:34.330Z,29.37
2018-03-26T22:21:08.011Z,28.17
2018-03-26T22:23:42.748Z,26.60
2018-03-26T22:26:17.291Z,38.73
2018-03-26T22:28:51.001Z,37.83
2018-03-26T22:31:24.927Z,41.07
2018-03-26T22:37:18.453Z,41.67
2018-03-26T22:39:58.665Z,43.73
2018-03-26T22:42:34.812Z,34.33
2018-03-26T22:45:11.483Z,43.33
2018-03-26T22:47:48.394Z,37.53
2018-03-26T22:50:24.761Z,40.73
2018-03-26T22:53:00.078Z,39.07
2018-03-26T22:55:35.831Z,45.60
2018-03-26T22:58:09.719Z,39.03
2018-03-26T23:00:44.840Z,53.00
2018-03-26T23:03:19.386Z,57.27
2018-03-26T23:05:53.686Z,60.50
2018-03-26T23:08:27.716Z,58.90
2018-03-26T23:11:03.337Z,51.60
2018-03-26T23:13:37.168Z,39.20
2018-03-26T23:16:11.680Z,40.03
2018-03-26T23:18:45.790Z,32.77
2018-03-26T23:21:20.368Z,40.63
2018-03-26T23:23:54.267Z,37.50
2018-03-26T23:26:31.266Z,50.73
2018-03-26T23:29:07.143Z,44.30
2018-03-26T23:31:46.428Z,47.17
2018-03-26T23:34:21.631Z,54.83
2018-03-26T23:36:57.543Z,70.33
2018-03-26T23:39:31.559Z,72.87
2018-03-26T23:42:07.554Z,70.60
